sensor_id;sensor_type;location;lat;lon;timestamp;pressure;altitude;pressure_sealevel;temperature;humidity
70304;BME280;57712;48.752;11.348;2023-02-01T00:02:10;98033.72;;;3.03;100.00
70304;BME280;57712;48.752;11.348;2023-02-01T00:04:37;98025.66;;;3.06;100.00
70304;BME280;57712;48.752;11.348;2023-02-01T00:07:03;98024.44;;;3.04;100.00
70304;BME280;57712;48.752;11.348;2023-02-01T00:09:30;98013.63;;;3.04;100.00
70304;BME280;57712;48.752;11.348;2023-02-01T00:11:57;98015.09;;;3.01;100.00
70304;BME280;57712;48.752;11.348;2023-02-01T00:14:25;98022.16;;;3.06;100.00
70304;BME280;57712;48.752;11.348;2023-02-01T00:16:52;98026.84;;;3.09;100.00
70304;BME280;57712;48.752;11.348;2023-02-01T00:19:18;98026.00;;;3.05;100.00
70304;BME280;57712;48.752;11.348;2023-02-01T00:21:46;98019.94;;;3.11;100.00
70304;BME280;57712;48.752;11.348;2023-02-01T00:24:12;98023.00;;;3.10;100.00
70304;BME280;57712;48.752;11.348;2023-02-01T00:26:41;98012.53;;;3.08;100.00
70304;BME280;57712;48.752;11.348;2023-02-01T00:29:12;98017.59;;;3.10;100.00
70304;BME280;57712;48.752;11.348;2023-02-01T00:31:39;98009.78;;;3.05;100.00
70304;BME280;57712;48.752;11.348;2023-02-01T00:34:06;98006.06;;;3.13;100.00
70304;BME280;57712;48.752;11.348;2023-02-01T00:36:33;98012.91;;;3.07;100.00
70304;BME280;57712;48.752;11.348;2023-02-01T00:38:59;98008.78;;;3.13;100.00
70304;BME280;57712;48.752;11.348;2023-02-01T00:41:26;98000.56;;;3.09;100.00
70304;BME280;57712;48.752;11.348;2023-02-01T00:43:53;98002.84;;;3.07;100.00
70304;BME280;57712;48.752;11.348;2023-02-01T00:46:20;97999.78;;;3.09;100.00
70304;BME280;57712;48.752;11.348;2023-02-01T00:48:48;98007.75;;;3.02;100.00
70304;BME280;57712;48.752;11.348;2023-02-01T00:51:18;98004.34;;;3.05;100.00
70304;BME280;57712;48.752;11.348;2023-02-01T00:53:45;97988.81;;;3.02;100.00
70304;BME280;57712;48.752;11.348;2023-02-01T00:56:12;97985.84;;;3.07;100.00
70304;BME280;57712;48.752;11.348;2023-02-01T00:58:38;97985.84;;;3.07;100.00
70304;BME280;57712;48.752;11.348;2023-02-01T01:03:43;97979.69;;;3.10;100.00
70304;BME280;57712;48.752;11.348;2023-02-01T01:06:14;97985.00;;;3.03;100.00
70304;BME280;57712;48.752;11.348;2023-02-01T01:08:42;97987.69;;;3.03;100.00
70304;BME280;57712;48.752;11.348;2023-02-01T01:11:15;97984.13;;;2.99;100.00
70304;BME280;57712;48.752;11.348;2023-02-01T01:13:43;97998.78;;;2.98;100.00
70304;BME280;57712;48.752;11.348;2023-02-01T01:16:10;97991.53;;;3.02;100.00
70304;BME280;57712;48.752;11.348;2023-02-01T01:18:37;97997.38;;;3.04;100.00
70304;BME280;57712;48.752;11.348;2023-02-01T01:21:05;97979.91;;;3.01;100.00
70304;BME280;57712;48.752;11.348;2023-02-01T01:23:31;97978.00;;;3.02;100.00
70304;BME280;57712;48.752;11.348;2023-02-01T01:25:58;97985.00;;;3.03;100.00
70304;BME280;57712;48.752;11.348;2023-02-01T01:28:25;97985.06;;;3.06;100.00
70304;BME280;57712;48.752;11.348;2023-02-01T01:30:51;97981.00;;;3.16;100.00
70304;BME280;57712;48.752;11.348;2023-02-01T01:33:18;97979.84;;;3.17;100.00
70304;BME280;57712;48.752;11.348;2023-02-01T01:35:44;97983.28;;;3.14;100.00
70304;BME280;57712;48.752;11.348;2023-02-01T01:38:11;97982.25;;;3.22;100.00
70304;BME280;57712;48.752;11.348;2023-02-01T01:40:38;97990.38;;;3.22;100.00
70304;BME280;57712;48.752;11.348;2023-02-01T01:43:15;97968.50;;;3.31;100.00
70304;BME280;57712;48.752;11.348;2023-02-01T01:45:43;97962.81;;;3.36;100.00
70304;BME280;57712;48.752;11.348;2023-02-01T01:48:24;97976.13;;;3.25;100.00
70304;BME280;57712;48.752;11.348;2023-02-01T01:51:05;97964.63;;;3.32;100.00
70304;BME280;57712;48.752;11.348;2023-02-01T01:53:40;97968.81;;;3.26;100.00
70304;BME280;57712;48.752;11.348;2023-02-01T01:56:08;97954.97;;;3.31;100.00
70304;BME280;57712;48.752;11.348;2023-02-01T01:58:35;97954.47;;;3.25;100.00
70304;BME280;57712;48.752;11.348;2023-02-01T02:01:01;97950.69;;;3.30;100.00
70304;BME280;57712;48.752;11.348;2023-02-01T02:03:44;97946.78;;;3.27;100.00
70304;BME280;57712;48.752;11.348;2023-02-01T02:06:23;97940.59;;;3.27;100.00
70304;BME280;57712;48.752;11.348;2023-02-01T02:08:53;97949.06;;;3.25;100.00
70304;BME280;57712;48.752;11.348;2023-02-01T02:11:20;97947.75;;;3.38;100.00
70304;BME280;57712;48.752;11.348;2023-02-01T02:13:52;97953.75;;;3.28;100.00
70304;BME280;57712;48.752;11.348;2023-02-01T02:16:29;97940.22;;;3.28;100.00
70304;BME280;57712;48.752;11.348;2023-02-01T02:42:29;97927.38;;;3.44;100.00
70304;BME280;57712;48.752;11.348;2023-02-01T02:45:41;97924.56;;;3.41;100.00
70304;BME280;57712;48.752;11.348;2023-02-01T02:48:38;97929.94;;;3.37;100.00
70304;BME280;57712;48.752;11.348;2023-02-01T02:51:20;97920.63;;;3.35;100.00
70304;BME280;57712;48.752;11.348;2023-02-01T02:54:15;97911.28;;;3.32;100.00
70304;BME280;57712;48.752;11.348;2023-02-01T02:57:04;97898.19;;;3.34;100.00
70304;BME280;57712;48.752;11.348;2023-02-01T02:59:52;97921.63;;;3.27;100.00
70304;BME280;57712;48.752;11.348;2023-02-01T03:02:37;97908.16;;;3.30;100.00
70304;BME280;57712;48.752;11.348;2023-02-01T03:05:23;97918.97;;;3.30;100.00
70304;BME280;57712;48.752;11.348;2023-02-01T03:11:00;97919.41;;;3.32;100.00
70304;BME280;57712;48.752;11.348;2023-02-01T03:18:51;97910.31;;;3.21;100.00
70304;BME280;57712;48.752;11.348;2023-02-01T03:21:29;97906.47;;;3.22;100.00
70304;BME280;57712;48.752;11.348;2023-02-01T03:24:02;97905.63;;;3.18;100.00
70304;BME280;57712;48.752;11.348;2023-02-01T03:26:34;97904.06;;;3.17;100.00
70304;BME280;57712;48.752;11.348;2023-02-01T03:29:12;97886.25;;;3.16;100.00
70304;BME280;57712;48.752;11.348;2023-02-01T03:31:40;97886.25;;;3.16;100.00
70304;BME280;57712;48.752;11.348;2023-02-01T03:34:07;97882.09;;;3.22;100.00
70304;BME280;57712;48.752;11.348;2023-02-01T03:36:43;97901.78;;;3.19;100.00
70304;BME280;57712;48.752;11.348;2023-02-01T03:39:19;97913.75;;;3.18;100.00
70304;BME280;57712;48.752;11.348;2023-02-01T03:41:55;97913.50;;;3.27;100.00
70304;BME280;57712;48.752;11.348;2023-02-01T03:47:17;97911.81;;;3.18;100.00
70304;BME280;57712;48.752;11.348;2023-02-01T03:49:50;97911.03;;;3.18;100.00
70304;BME280;57712;48.752;11.348;2023-02-01T03:52:22;97910.25;;;3.17;100.00
70304;BME280;57712;48.752;11.348;2023-02-01T03:54:52;97904.06;;;3.17;100.00
70304;BME280;57712;48.752;11.348;2023-02-01T03:57:23;97897.91;;;3.20;100.00
70304;BME280;57712;48.752;11.348;2023-02-01T03:59:52;97907.13;;;3.15;100.00
70304;BME280;57712;48.752;11.348;2023-02-01T04:02:19;97897.91;;;3.20;100.00
70304;BME280;57712;48.752;11.348;2023-02-01T04:04:45;97903.34;;;3.20;100.00
70304;BME280;57712;48.752;11.348;2023-02-01T04:07:12;97911.44;;;3.20;100.00
70304;BME280;57712;48.752;11.348;2023-02-01T04:09:38;97898.78;;;3.24;100.00
70304;BME280;57712;48.752;11.348;2023-02-01T04:12:05;97891.06;;;3.26;100.00
70304;BME280;57712;48.752;11.348;2023-02-01T04:14:31;97894.50;;;3.23;100.00
70304;BME280;57712;48.752;11.348;2023-02-01T04:16:58;97903.47;;;3.27;100.00
70304;BME280;57712;48.752;11.348;2023-02-01T04:19:25;97900.41;;;3.29;100.00
70304;BME280;57712;48.752;11.348;2023-02-01T04:21:51;97892.63;;;3.27;100.00
70304;BME280;57712;48.752;11.348;2023-02-01T04:24:18;97899.25;;;3.30;100.00
70304;BME280;57712;48.752;11.348;2023-02-01T04:26:44;97893.47;;;3.31;100.00
70304;BME280;57712;48.752;11.348;2023-02-01T04:29:11;97888.41;;;3.30;100.00
70304;BME280;57712;48.752;11.348;2023-02-01T04:31:38;97892.03;;;3.37;100.00
70304;BME280;57712;48.752;11.348;2023-02-01T04:34:04;97880.34;;;3.33;100.00
70304;BME280;57712;48.752;11.348;2023-02-01T04:36:31;97878.78;;;3.32;100.00
70304;BME280;57712;48.752;11.348;2023-02-01T04:38:57;97867.19;;;3.32;100.00
70304;BME280;57712;48.752;11.348;2023-02-01T04:41:27;97870.38;;;3.37;100.00
70304;BME280;57712;48.752;11.348;2023-02-01T04:43:53;97863.41;;;3.36;100.00
70304;BME280;57712;48.752;11.348;2023-02-01T04:46:20;97852.63;;;3.40;100.00
70304;BME280;57712;48.752;11.348;2023-02-01T04:48:46;97841.78;;;3.40;100.00
70304;BME280;57712;48.752;11.348;2023-02-01T04:51:13;97834.94;;;3.46;100.00
70304;BME280;57712;48.752;11.348;2023-02-01T04:53:41;97851.84;;;3.39;100.00
70304;BME280;57712;48.752;11.348;2023-02-01T04:56:07;97847.25;;;3.43;100.00
70304;BME280;57712;48.752;11.348;2023-02-01T04:58:34;97846.78;;;3.38;100.00
70304;BME280;57712;48.752;11.348;2023-02-01T05:01:04;97838.31;;;3.39;100.00
70304;BME280;57712;48.752;11.348;2023-02-01T05:03:34;97846.06;;;3.41;100.00
70304;BME280;57712;48.752;11.348;2023-02-01T05:06:01;97836.41;;;3.43;100.00
70304;BME280;57712;48.752;11.348;2023-02-01T05:08:30;97840.72;;;3.44;100.00
70304;BME280;57712;48.752;11.348;2023-02-01T05:10:57;97834.63;;;3.51;100.00
70304;BME280;57712;48.752;11.348;2023-02-01T05:13:25;97840.41;;;3.50;100.00
70304;BME280;57712;48.752;11.348;2023-02-01T05:16:09;97847.31;;;3.47;100.00
70304;BME280;57712;48.752;11.348;2023-02-01T05:18:36;97844.47;;;3.63;100.00
70304;BME280;57712;48.752;11.348;2023-02-01T05:21:03;97837.41;;;3.55;100.00
70304;BME280;57712;48.752;11.348;2023-02-01T05:23:29;97829.34;;;3.62;100.00
70304;BME280;57712;48.752;11.348;2023-02-01T05:25:59;97839.81;;;3.63;100.00
70304;BME280;57712;48.752;11.348;2023-02-01T05:28:27;97844.56;;;3.70;100.00
70304;BME280;57712;48.752;11.348;2023-02-01T05:30:54;97834.47;;;3.67;100.00
70304;BME280;57712;48.752;11.348;2023-02-01T05:33:21;97831.28;;;3.61;100.00
70304;BME280;57712;48.752;11.348;2023-02-01T05:35:49;97831.34;;;3.65;100.00
70304;BME280;57712;48.752;11.348;2023-02-01T05:38:16;97830.25;;;3.69;100.00
70304;BME280;57712;48.752;11.348;2023-02-01T05:40:43;97829.88;;;3.71;100.00
70304;BME280;57712;48.752;11.348;2023-02-01T05:43:15;97821.78;;;3.74;100.00
70304;BME280;57712;48.752;11.348;2023-02-01T05:45:42;97837.28;;;3.74;100.00
70304;BME280;57712;48.752;11.348;2023-02-01T05:48:09;97831.50;;;3.75;100.00
70304;BME280;57712;48.752;11.348;2023-02-01T05:50:35;97822.69;;;3.82;100.00
70304;BME280;57712;48.752;11.348;2023-02-01T05:53:02;97824.56;;;3.78;100.00
70304;BME280;57712;48.752;11.348;2023-02-01T05:55:28;97818.41;;;3.81;100.00
70304;BME280;57712;48.752;11.348;2023-02-01T05:57:55;97827.31;;;3.82;100.00
70304;BME280;57712;48.752;11.348;2023-02-01T06:00:22;97823.53;;;3.86;100.00
70304;BME280;57712;48.752;11.348;2023-02-01T06:02:49;97816.97;;;3.87;100.00
70304;BME280;57712;48.752;11.348;2023-02-01T06:05:16;97813.41;;;3.83;100.00
70304;BME280;57712;48.752;11.348;2023-02-01T06:07:42;97810.69;;;3.83;100.00
70304;BME280;57712;48.752;11.348;2023-02-01T06:10:09;97814.19;;;3.84;100.00
70304;BME280;57712;48.752;11.348;2023-02-01T06:12:36;97818.03;;;3.83;100.00
70304;BME280;57712;48.752;11.348;2023-02-01T06:15:03;97811.44;;;3.80;100.00
70304;BME280;57712;48.752;11.348;2023-02-01T06:17:29;97816.91;;;3.84;100.00
70304;BME280;57712;48.752;11.348;2023-02-01T06:19:56;97822.38;;;3.87;100.00
70304;BME280;57712;48.752;11.348;2023-02-01T06:22:23;97821.13;;;3.81;100.00
70304;BME280;57712;48.752;11.348;2023-02-01T06:24:49;97825.81;;;3.84;100.00
70304;BME280;57712;48.752;11.348;2023-02-01T06:27:16;97836.22;;;3.82;100.00
70304;BME280;57712;48.752;11.348;2023-02-01T06:29:42;97823.16;;;3.88;100.00
70304;BME280;57712;48.752;11.348;2023-02-01T06:32:10;97830.06;;;3.85;100.00
70304;BME280;57712;48.752;11.348;2023-02-01T06:34:36;97828.94;;;3.86;100.00
70304;BME280;57712;48.752;11.348;2023-02-01T06:37:03;97824.34;;;3.90;100.00
70304;BME280;57712;48.752;11.348;2023-02-01T06:39:30;97830.13;;;3.89;100.00
70304;BME280;57712;48.752;11.348;2023-02-01T06:41:57;97837.38;;;3.81;100.00
70304;BME280;57712;48.752;11.348;2023-02-01T06:44:23;97837.00;;;3.83;100.00
70304;BME280;57712;48.752;11.348;2023-02-01T06:46:49;97838.19;;;3.85;100.00
70304;BME280;57712;48.752;11.348;2023-02-01T06:49:16;97842.38;;;3.79;100.00
70304;BME280;57712;48.752;11.348;2023-02-01T06:51:43;97835.50;;;3.85;100.00
70304;BME280;57712;48.752;11.348;2023-02-01T06:54:09;97845.50;;;3.81;100.00
70304;BME280;57712;48.752;11.348;2023-02-01T06:56:36;97842.06;;;3.84;100.00
70304;BME280;57712;48.752;11.348;2023-02-01T06:59:06;97835.63;;;3.96;100.00
70304;BME280;57712;48.752;11.348;2023-02-01T07:01:34;97838.69;;;3.91;100.00
70304;BME280;57712;48.752;11.348;2023-02-01T07:04:01;97834.03;;;3.91;100.00
70304;BME280;57712;48.752;11.348;2023-02-01T07:06:27;97836.47;;;4.00;100.00
70304;BME280;57712;48.752;11.348;2023-02-01T07:08:53;97834.84;;;3.95;100.00
70304;BME280;57712;48.752;11.348;2023-02-01T07:11:22;97846.47;;;3.96;100.00
70304;BME280;57712;48.752;11.348;2023-02-01T07:13:49;97833.41;;;4.01;100.00
70304;BME280;57712;48.752;11.348;2023-02-01T07:16:18;97845.00;;;3.98;100.00
70304;BME280;57712;48.752;11.348;2023-02-01T07:18:45;97845.84;;;4.06;100.00
70304;BME280;57712;48.752;11.348;2023-02-01T07:21:13;97848.47;;;3.99;100.00
70304;BME280;57712;48.752;11.348;2023-02-01T07:23:39;97847.78;;;4.05;100.00
70304;BME280;57712;48.752;11.348;2023-02-01T07:26:07;97845.06;;;4.05;100.00
70304;BME280;57712;48.752;11.348;2023-02-01T07:28:35;97852.09;;;4.10;100.00
70304;BME280;57712;48.752;11.348;2023-02-01T07:31:06;97840.09;;;4.08;100.00
70304;BME280;57712;48.752;11.348;2023-02-01T07:33:33;97854.34;;;4.04;100.00
70304;BME280;57712;48.752;11.348;2023-02-01T07:36:05;97844.72;;;4.07;100.00
70304;BME280;57712;48.752;11.348;2023-02-01T07:38:32;97846.28;;;4.08;100.00
70304;BME280;57712;48.752;11.348;2023-02-01T07:41:03;97853.53;;;4.00;100.00
70304;BME280;57712;48.752;11.348;2023-02-01T07:43:31;97866.66;;;3.98;100.00
70304;BME280;57712;48.752;11.348;2023-02-01T07:45:59;97888.38;;;4.02;100.00
70304;BME280;57712;48.752;11.348;2023-02-01T07:48:27;97874.44;;;4.00;100.00
70304;BME280;57712;48.752;11.348;2023-02-01T07:51:02;97864.38;;;4.00;100.00
70304;BME280;57712;48.752;11.348;2023-02-01T07:53:30;97880.63;;;4.00;100.00
70304;BME280;57712;48.752;11.348;2023-02-01T07:55:57;97873.66;;;3.99;100.00
70304;BME280;57712;48.752;11.348;2023-02-01T07:58:24;97864.38;;;4.00;100.00
70304;BME280;57712;48.752;11.348;2023-02-01T08:00:51;97882.16;;;3.98;100.00
70304;BME280;57712;48.752;11.348;2023-02-01T08:03:37;97868.97;;;3.96;100.00
70304;BME280;57712;48.752;11.348;2023-02-01T08:06:04;97864.97;;;3.87;100.00
70304;BME280;57712;48.752;11.348;2023-02-01T08:08:31;97867.22;;;3.85;100.00
70304;BME280;57712;48.752;11.348;2023-02-01T08:10:58;97856.34;;;3.81;100.00
70304;BME280;57712;48.752;11.348;2023-02-01T08:13:25;97874.84;;;3.75;100.00
70304;BME280;57712;48.752;11.348;2023-02-01T08:15:52;97871.34;;;3.75;100.00
70304;BME280;57712;48.752;11.348;2023-02-01T08:18:18;97874.75;;;3.68;100.00
70304;BME280;57712;48.752;11.348;2023-02-01T08:20:45;97878.22;;;3.69;100.00
70304;BME280;57712;48.752;11.348;2023-02-01T08:23:12;97858.75;;;3.60;100.00
70304;BME280;57712;48.752;11.348;2023-02-01T08:25:38;97872.69;;;3.62;100.00
70304;BME280;57712;48.752;11.348;2023-02-01T08:28:08;97878.47;;;3.60;100.00
70304;BME280;57712;48.752;11.348;2023-02-01T08:30:37;97898.53;;;3.56;100.00
70304;BME280;57712;48.752;11.348;2023-02-01T08:33:05;97890.94;;;3.65;100.00
70304;BME280;57712;48.752;11.348;2023-02-01T08:35:36;97897.81;;;3.59;100.00
70304;BME280;57712;48.752;11.348;2023-02-01T08:38:09;97885.41;;;3.58;100.00
70304;BME280;57712;48.752;11.348;2023-02-01T08:40:35;97879.38;;;3.68;100.00
70304;BME280;57712;48.752;11.348;2023-02-01T08:43:02;97881.31;;;3.67;100.00
70304;BME280;57712;48.752;11.348;2023-02-01T08:45:29;97886.34;;;3.69;100.00
70304;BME280;57712;48.752;11.348;2023-02-01T08:47:56;97885.88;;;3.63;100.00
70304;BME280;57712;48.752;11.348;2023-02-01T08:50:24;97883.44;;;3.55;100.00
70304;BME280;57712;48.752;11.348;2023-02-01T08:52:52;97881.13;;;3.57;100.00
70304;BME280;57712;48.752;11.348;2023-02-01T08:55:18;97869.19;;;3.61;100.00
70304;BME280;57712;48.752;11.348;2023-02-01T08:57:45;97900.50;;;3.59;100.00
70304;BME280;57712;48.752;11.348;2023-02-01T09:00:15;97895.81;;;3.56;100.00
70304;BME280;57712;48.752;11.348;2023-02-01T09:02:43;97890.03;;;3.57;100.00
70304;BME280;57712;48.752;11.348;2023-02-01T09:05:09;97907.06;;;3.58;100.00
70304;BME280;57712;48.752;11.348;2023-02-01T09:07:37;97898.34;;;3.68;100.00
70304;BME280;57712;48.752;11.348;2023-02-01T09:10:04;97902.78;;;3.80;100.00
70304;BME280;57712;48.752;11.348;2023-02-01T09:12:32;97910.84;;;3.76;100.00
70304;BME280;57712;48.752;11.348;2023-02-01T09:14:59;97908.84;;;3.73;100.00
70304;BME280;57712;48.752;11.348;2023-02-01T09:17:27;97910.56;;;3.85;100.00
70304;BME280;57712;48.752;11.348;2023-02-01T09:19:59;97908.31;;;3.87;100.00
70304;BME280;57712;48.752;11.348;2023-02-01T09:22:25;97906.69;;;3.82;100.00
70304;BME280;57712;48.752;11.348;2023-02-01T09:24:52;97910.94;;;3.83;100.00
70304;BME280;57712;48.752;11.348;2023-02-01T09:27:21;97919.16;;;3.87;100.00
70304;BME280;57712;48.752;11.348;2023-02-01T09:29:47;97914.97;;;3.93;100.00
70304;BME280;57712;48.752;11.348;2023-02-01T09:32:20;97921.66;;;3.99;100.00
70304;BME280;57712;48.752;11.348;2023-02-01T09:34:46;97925.56;;;4.01;100.00
70304;BME280;57712;48.752;11.348;2023-02-01T09:37:13;97929.78;;;3.99;100.00
70304;BME280;57712;48.752;11.348;2023-02-01T09:39:40;97929.41;;;4.00;100.00
70304;BME280;57712;48.752;11.348;2023-02-01T09:42:23;97925.50;;;3.98;100.00
70304;BME280;57712;48.752;11.348;2023-02-01T09:45:10;97920.88;;;3.98;100.00
70304;BME280;57712;48.752;11.348;2023-02-01T09:47:46;97925.56;;;4.01;100.00
70304;BME280;57712;48.752;11.348;2023-02-01T09:50:53;97928.25;;;4.01;100.00
70304;BME280;57712;48.752;11.348;2023-02-01T09:53:37;97930.34;;;4.12;100.00
70304;BME280;57712;48.752;11.348;2023-02-01T09:56:07;97932.72;;;4.17;100.00
70304;BME280;57712;48.752;11.348;2023-02-01T09:58:42;97926.53;;;4.16;100.00
70304;BME280;57712;48.752;11.348;2023-02-01T10:01:29;97935.97;;;4.26;100.00
70304;BME280;57712;48.752;11.348;2023-02-01T10:04:02;97957.88;;;4.14;100.00
70304;BME280;57712;48.752;11.348;2023-02-01T10:06:51;97959.97;;;3.97;100.00
70304;BME280;57712;48.752;11.348;2023-02-01T10:12:36;97969.66;;;3.98;100.00
70304;BME280;57712;48.752;11.348;2023-02-01T10:15:28;97974.94;;;3.91;100.00
70304;BME280;57712;48.752;11.348;2023-02-01T10:18:13;97978.69;;;3.83;100.00
70304;BME280;57712;48.752;11.348;2023-02-01T10:23:41;97990.63;;;3.56;100.00
70304;BME280;57712;48.752;11.348;2023-02-01T10:26:21;97996.88;;;3.60;100.00
70304;BME280;57712;48.752;11.348;2023-02-01T10:28:57;97987.72;;;3.68;100.00
70304;BME280;57712;48.752;11.348;2023-02-01T10:31:26;97988.88;;;3.67;100.00
70304;BME280;57712;48.752;11.348;2023-02-01T10:33:59;97983.09;;;3.68;100.00
70304;BME280;57712;48.752;11.348;2023-02-01T10:36:34;97967.66;;;3.72;100.00
70304;BME280;57712;48.752;11.348;2023-02-01T10:39:03;97976.28;;;3.78;100.00
70304;BME280;57712;48.752;11.348;2023-02-01T10:41:36;97983.22;;;3.75;100.00
70304;BME280;57712;48.752;11.348;2023-02-01T10:44:07;97970.00;;;3.74;100.00
70304;BME280;57712;48.752;11.348;2023-02-01T10:46:36;97967.75;;;3.76;100.00
70304;BME280;57712;48.752;11.348;2023-02-01T10:49:05;97956.91;;;3.76;100.00
70304;BME280;57712;48.752;11.348;2023-02-01T10:51:55;97951.41;;;3.72;100.00
70304;BME280;57712;48.752;11.348;2023-02-01T10:54:33;97948.47;;;3.81;100.00
70304;BME280;57712;48.752;11.348;2023-02-01T10:57:00;97952.00;;;3.85;100.00
70304;BME280;57712;48.752;11.348;2023-02-01T10:59:28;97948.09;;;3.83;100.00
70304;BME280;57712;48.752;11.348;2023-02-01T11:02:01;97949.00;;;3.90;100.00
70304;BME280;57712;48.752;11.348;2023-02-01T11:04:33;97943.16;;;3.88;100.00
70304;BME280;57712;48.752;11.348;2023-02-01T11:07:29;97959.44;;;3.88;100.00
70304;BME280;57712;48.752;11.348;2023-02-01T11:09:54;97944.78;;;3.93;100.00
70304;BME280;57712;48.752;11.348;2023-02-01T11:12:31;97960.66;;;3.94;100.00
70304;BME280;57712;48.752;11.348;2023-02-01T11:17:35;97978.94;;;3.97;100.00
70304;BME280;57712;48.752;11.348;2023-02-01T11:20:13;97981.13;;;4.15;100.00
70304;BME280;57712;48.752;11.348;2023-02-01T11:22:48;97974.75;;;4.03;100.00
70304;BME280;57712;48.752;11.348;2023-02-01T11:25:16;97975.53;;;4.04;100.00
70304;BME280;57712;48.752;11.348;2023-02-01T11:27:44;97976.75;;;4.07;100.00
70304;BME280;57712;48.752;11.348;2023-02-01T11:30:32;97971.44;;;4.14;100.00
70304;BME280;57712;48.752;11.348;2023-02-01T11:33:00;97971.50;;;4.17;100.00
70304;BME280;57712;48.752;11.348;2023-02-01T11:35:29;97953.75;;;4.23;100.00
70304;BME280;57712;48.752;11.348;2023-02-01T11:37:59;97960.81;;;4.28;100.00
70304;BME280;57712;48.752;11.348;2023-02-01T11:40:35;97947.75;;;4.37;100.00
70304;BME280;57712;48.752;11.348;2023-02-01T11:43:27;97940.97;;;4.50;100.00
70304;BME280;57712;48.752;11.348;2023-02-01T11:45:57;97941.81;;;4.58;100.00
70304;BME280;57712;48.752;11.348;2023-02-01T11:48:26;97931.84;;;4.66;100.00
70304;BME280;57712;48.752;11.348;2023-02-01T11:56:24;97930.75;;;4.40;100.00
70304;BME280;57712;48.752;11.348;2023-02-01T12:08:06;97931.38;;;3.77;100.00
70304;BME280;57712;48.752;11.348;2023-02-01T12:10:49;97919.41;;;3.55;100.00
70304;BME280;57712;48.752;11.348;2023-02-01T12:13:27;97924.56;;;3.64;100.00
70304;BME280;57712;48.752;11.348;2023-02-01T12:16:28;97917.41;;;3.75;100.00
70304;BME280;57712;48.752;11.348;2023-02-01T12:22:14;97896.41;;;3.95;100.00
70304;BME280;57712;48.752;11.348;2023-02-01T12:27:58;97889.78;;;4.19;100.00
70304;BME280;57712;48.752;11.348;2023-02-01T12:43:38;97860.88;;;4.30;100.00
70304;BME280;57712;48.752;11.348;2023-02-01T12:46:13;97867.97;;;4.38;100.00
70304;BME280;57712;48.752;11.348;2023-02-01T12:49:06;97859.41;;;4.36;100.00
70304;BME280;57712;48.752;11.348;2023-02-01T12:51:38;97877.97;;;4.34;100.00
70304;BME280;57712;48.752;11.348;2023-02-01T12:54:40;97869.84;;;4.34;100.00
70304;BME280;57712;48.752;11.348;2023-02-01T12:57:41;97864.81;;;4.36;100.00
70304;BME280;57712;48.752;11.348;2023-02-01T13:00:23;97857.91;;;4.39;100.00
70304;BME280;57712;48.752;11.348;2023-02-01T13:03:17;97858.72;;;4.43;100.00
70304;BME280;57712;48.752;11.348;2023-02-01T13:05:53;97883.28;;;4.27;100.00
70304;BME280;57712;48.752;11.348;2023-02-01T13:08:25;97859.75;;;4.31;100.00
70304;BME280;57712;48.752;11.348;2023-02-01T13:11:35;97869.75;;;4.27;100.00
70304;BME280;57712;48.752;11.348;2023-02-01T13:14:38;97866.31;;;4.30;100.00
70304;BME280;57712;48.752;11.348;2023-02-01T13:17:20;97856.94;;;4.24;100.00
70304;BME280;57712;48.752;11.348;2023-02-01T13:19:56;97853.97;;;4.36;100.00
70304;BME280;57712;48.752;11.348;2023-02-01T13:25:13;97860.78;;;4.23;100.00
70304;BME280;57712;48.752;11.348;2023-02-01T13:27:42;97853.78;;;4.18;100.00
70304;BME280;57712;48.752;11.348;2023-02-01T13:30:19;97849.19;;;4.26;100.00
70304;BME280;57712;48.752;11.348;2023-02-01T13:33:06;97844.69;;;4.37;100.00
70304;BME280;57712;48.752;11.348;2023-02-01T13:41:49;97838.81;;;4.31;100.00
70304;BME280;57712;48.752;11.348;2023-02-01T13:44:26;97833.00;;;4.29;100.00
70304;BME280;57712;48.752;11.348;2023-02-01T13:46:58;97837.75;;;4.40;100.00
70304;BME280;57712;48.752;11.348;2023-02-01T13:49:28;97830.78;;;4.39;100.00
70304;BME280;57712;48.752;11.348;2023-02-01T13:51:57;97832.38;;;4.43;100.00
70304;BME280;57712;48.752;11.348;2023-02-01T13:54:31;97844.75;;;4.41;100.00
70304;BME280;57712;48.752;11.348;2023-02-01T13:57:00;97830.06;;;4.45;100.00
70304;BME280;57712;48.752;11.348;2023-02-01T14:03:08;97829.41;;;4.55;100.00
70304;BME280;57712;48.752;11.348;2023-02-01T14:08:36;97835.72;;;4.67;100.00
70304;BME280;57712;48.752;11.348;2023-02-01T14:11:03;97833.44;;;4.69;100.00
70304;BME280;57712;48.752;11.348;2023-02-01T14:13:34;97833.84;;;4.71;100.00
70304;BME280;57712;48.752;11.348;2023-02-01T14:26:25;97845.50;;;4.75;100.00
70304;BME280;57712;48.752;11.348;2023-02-01T14:31:53;97833.50;;;4.76;100.00
70304;BME280;57712;48.752;11.348;2023-02-01T14:39:53;97835.06;;;4.77;100.00
70304;BME280;57712;48.752;11.348;2023-02-01T14:42:26;97830.41;;;4.77;100.00
70304;BME280;57712;48.752;11.348;2023-02-01T14:44:56;97843.59;;;4.79;100.00
70304;BME280;57712;48.752;11.348;2023-02-01T14:47:41;97842.81;;;4.75;100.00
70304;BME280;57712;48.752;11.348;2023-02-01T14:58:41;97842.13;;;4.85;100.00
70304;BME280;57712;48.752;11.348;2023-02-01T15:01:28;97844.38;;;4.79;100.00
70304;BME280;57712;48.752;11.348;2023-02-01T15:04:08;97850.19;;;4.78;100.00
70304;BME280;57712;48.752;11.348;2023-02-01T15:06:48;97850.53;;;4.73;100.00
70304;BME280;57712;48.752;11.348;2023-02-01T15:09:32;97847.47;;;4.78;100.00
70304;BME280;57712;48.752;11.348;2023-02-01T15:15:01;97851.69;;;4.72;100.00
70304;BME280;57712;48.752;11.348;2023-02-01T15:17:30;97846.66;;;4.70;100.00
70304;BME280;57712;48.752;11.348;2023-02-01T15:20:20;97844.38;;;4.76;100.00